createdAt,value
2022-09-06T00:00:16.995Z,3.43
2022-09-06T00:02:44.287Z,3.60
2022-09-06T00:05:12.790Z,3.87
2022-09-06T00:07:40.136Z,3.27
2022-09-06T00:10:07.391Z,3.07
2022-09-06T00:12:34.436Z,3.70
2022-09-06T00:15:01.196Z,3.80
2022-09-06T00:17:28.068Z,3.00
2022-09-06T00:19:55.122Z,3.30
2022-09-06T00:22:21.908Z,3.87
2022-09-06T00:24:48.741Z,3.63
2022-09-06T00:27:15.517Z,3.87
2022-09-06T00:29:42.251Z,3.90
2022-09-06T00:32:10.209Z,3.60
2022-09-06T00:34:37.060Z,3.57
2022-09-06T00:37:03.830Z,3.97
2022-09-06T00:39:30.678Z,3.47
2022-09-06T00:41:57.534Z,4.13
2022-09-06T00:44:24.404Z,4.40
2022-09-06T00:46:53.677Z,3.60
2022-09-06T00:49:29.817Z,4.03
2022-09-06T00:52:02.175Z,4.10
2022-09-06T00:54:29.451Z,3.80
2022-09-06T00:56:57.319Z,4.03
2022-09-06T00:59:27.085Z,3.40
2022-09-06T01:01:53.940Z,3.70
2022-09-06T01:04:21.022Z,3.43
2022-09-06T01:06:47.774Z,3.80
2022-09-06T01:09:39.335Z,4.13
2022-09-06T01:12:21.084Z,3.90
2022-09-06T01:14:47.804Z,3.70
2022-09-06T01:17:26.725Z,3.20
2022-09-06T01:20:18.116Z,4.00
2022-09-06T01:23:04.758Z,4.10
2022-09-06T01:26:13.175Z,3.60
2022-09-06T01:28:43.779Z,3.27
2022-09-06T01:31:25.557Z,3.60
2022-09-06T01:33:58.455Z,3.50
2022-09-06T01:36:32.779Z,3.90
2022-09-06T01:38:59.641Z,3.43
2022-09-06T01:41:26.802Z,3.60
2022-09-06T01:43:55.249Z,3.20
2022-09-06T01:46:32.935Z,3.80
2022-09-06T01:49:42.924Z,3.47
2022-09-06T01:52:17.999Z,3.50
2022-09-06T01:55:09.484Z,3.77
2022-09-06T01:58:06.630Z,4.10
2022-09-06T02:00:41.625Z,3.83
2022-09-06T02:03:36.802Z,3.80
2022-09-06T02:06:14.669Z,3.90
2022-09-06T02:08:53.281Z,3.53
2022-09-06T02:11:21.185Z,3.97
2022-09-06T02:13:54.247Z,4.23
2022-09-06T02:16:24.490Z,3.80
2022-09-06T02:19:12.244Z,3.80
2022-09-06T02:21:43.376Z,3.97
2022-09-06T02:24:15.543Z,3.40
2022-09-06T02:26:45.124Z,4.00
2022-09-06T02:29:12.398Z,4.03
2022-09-06T02:31:44.533Z,3.37
2022-09-06T02:34:15.628Z,3.97
2022-09-06T02:36:42.744Z,3.83
2022-09-06T02:39:10.067Z,4.60
2022-09-06T02:41:37.876Z,4.43
2022-09-06T02:44:04.619Z,3.50
2022-09-06T02:46:31.441Z,4.13
2022-09-06T02:48:58.247Z,3.63
2022-09-06T02:51:25.011Z,3.43
2022-09-06T02:53:52.052Z,3.43
2022-09-06T02:56:18.835Z,3.73
2022-09-06T02:58:45.721Z,3.97
2022-09-06T03:01:12.619Z,4.07
2022-09-06T03:03:39.464Z,3.70
2022-09-06T03:06:06.515Z,3.67
2022-09-06T03:08:34.216Z,3.90
2022-09-06T03:11:01.144Z,4.07
2022-09-06T03:13:28.247Z,3.30
2022-09-06T03:15:57.575Z,4.23
2022-09-06T03:18:25.847Z,4.40
2022-09-06T03:20:54.228Z,4.10
2022-09-06T03:23:24.754Z,4.50
2022-09-06T03:25:52.004Z,3.87
2022-09-06T03:28:20.052Z,3.80
2022-09-06T03:30:48.604Z,4.20
2022-09-06T03:33:16.007Z,5.07
2022-09-06T03:35:54.596Z,4.03
2022-09-06T03:38:21.748Z,3.63
2022-09-06T03:40:49.425Z,3.97
2022-09-06T03:43:17.754Z,3.70
2022-09-06T03:45:53.091Z,4.77
2022-09-06T03:48:22.421Z,6.30
2022-09-06T03:50:51.792Z,7.43
2022-09-06T03:53:18.960Z,7.63
2022-09-06T03:55:50.818Z,9.00
2022-09-06T03:58:19.622Z,8.63
2022-09-06T04:00:46.456Z,8.77
2022-09-06T04:03:13.686Z,8.10
2022-09-06T04:05:40.805Z,7.00
2022-09-06T04:08:07.596Z,6.80
2022-09-06T04:10:34.335Z,6.00
2022-09-06T04:13:01.119Z,5.60
2022-09-06T04:15:28.048Z,5.50
2022-09-06T04:17:54.804Z,5.47
2022-09-06T04:20:21.646Z,5.83
2022-09-06T04:22:48.527Z,5.33
2022-09-06T04:25:15.369Z,5.83
2022-09-06T04:27:42.227Z,5.27
2022-09-06T04:30:09.425Z,4.30
2022-09-06T04:32:36.335Z,5.30
2022-09-06T04:35:03.317Z,5.63
2022-09-06T04:37:30.038Z,5.40
2022-09-06T04:39:56.880Z,5.80
2022-09-06T04:42:23.649Z,6.10
2022-09-06T04:44:50.592Z,6.27
2022-09-06T04:47:19.198Z,7.60
2022-09-06T04:49:48.197Z,6.67
2022-09-06T04:52:15.619Z,7.57
2022-09-06T04:54:42.652Z,7.37
2022-09-06T04:57:09.823Z,9.10
2022-09-06T04:59:36.648Z,7.23
2022-09-06T05:02:04.127Z,7.20
2022-09-06T05:04:31.075Z,6.47
2022-09-06T05:07:05.806Z,6.30
2022-09-06T05:09:33.508Z,5.87
2022-09-06T05:12:00.891Z,6.37
2022-09-06T05:14:28.656Z,5.87
2022-09-06T05:16:55.747Z,5.50
2022-09-06T05:19:23.020Z,6.70
2022-09-06T05:21:51.405Z,5.17
2022-09-06T05:24:18.395Z,5.10
2022-09-06T05:26:45.221Z,4.57
2022-09-06T05:29:12.048Z,4.80
2022-09-06T05:31:38.909Z,6.07
2022-09-06T05:34:05.973Z,5.63
2022-09-06T05:36:33.235Z,6.63
2022-09-06T05:39:00.360Z,7.00
2022-09-06T05:41:27.556Z,8.10
2022-09-06T05:43:54.412Z,7.90
2022-09-06T05:46:21.540Z,8.33
2022-09-06T05:49:01.170Z,7.10
2022-09-06T05:51:28.051Z,6.03
2022-09-06T05:53:54.907Z,6.50
2022-09-06T05:56:22.525Z,6.20
2022-09-06T05:58:49.382Z,6.80
2022-09-06T06:01:22.037Z,5.43
2022-09-06T06:03:54.679Z,5.60
2022-09-06T06:06:23.828Z,6.73
2022-09-06T06:08:50.739Z,6.73
2022-09-06T06:11:18.117Z,6.27
2022-09-06T06:13:45.145Z,5.97
2022-09-06T06:16:15.225Z,5.73
2022-09-06T06:18:42.604Z,6.10
2022-09-06T06:21:21.675Z,5.83
2022-09-06T06:23:52.632Z,5.60
2022-09-06T06:26:20.027Z,5.00
2022-09-06T06:28:46.940Z,5.70
2022-09-06T06:31:14.251Z,6.27
2022-09-06T06:33:41.863Z,5.07
2022-09-06T06:36:24.413Z,6.07
2022-09-06T06:38:54.313Z,4.90
2022-09-06T06:41:24.090Z,4.73
2022-09-06T06:43:55.216Z,5.07
2022-09-06T06:46:24.639Z,7.07
2022-09-06T06:48:54.836Z,5.40
2022-09-06T06:51:28.285Z,4.60
2022-09-06T06:53:56.913Z,4.70
2022-09-06T06:56:31.139Z,4.30
2022-09-06T06:59:00.171Z,4.60
2022-09-06T07:01:29.155Z,5.13
2022-09-06T07:03:56.256Z,4.80
2022-09-06T07:09:10.377Z,4.97
2022-09-06T07:11:37.256Z,6.40
2022-09-06T07:14:04.174Z,6.80
2022-09-06T07:16:31.471Z,6.13
2022-09-06T07:18:58.497Z,5.57
2022-09-06T07:26:38.784Z,6.30
2022-09-06T07:29:07.454Z,6.70
2022-09-06T07:34:22.537Z,6.90
2022-09-06T07:36:55.222Z,6.90
2022-09-06T07:39:22.782Z,7.97
2022-09-06T07:41:49.635Z,7.03
2022-09-06T07:44:16.443Z,6.80
2022-09-06T07:46:43.283Z,5.90
2022-09-06T07:49:10.085Z,6.70
2022-09-06T07:51:37.116Z,6.80
2022-09-06T07:54:29.281Z,5.90
2022-09-06T07:56:51.750Z,6.30
2022-09-06T07:59:18.507Z,5.90
2022-09-06T08:01:45.442Z,6.77
2022-09-06T08:04:14.117Z,6.37
2022-09-06T08:09:37.078Z,5.77
2022-09-06T08:12:07.407Z,5.57
2022-09-06T08:14:35.216Z,5.70
2022-09-06T08:17:02.782Z,6.03
2022-09-06T08:19:29.609Z,5.13
2022-09-06T08:21:56.488Z,7.30
2022-09-06T08:24:23.388Z,6.00
2022-09-06T08:26:50.267Z,5.20
2022-09-06T08:29:17.242Z,6.37
2022-09-06T08:31:45.123Z,5.20
2022-09-06T08:34:12.729Z,5.40
2022-09-06T08:36:39.989Z,5.13
2022-09-06T08:39:10.032Z,5.20
2022-09-06T08:41:58.528Z,5.07
2022-09-06T08:44:58.449Z,4.90
2022-09-06T08:47:25.777Z,4.80
2022-09-06T08:50:06.410Z,5.40
2022-09-06T08:53:16.330Z,4.20
2022-09-06T08:55:46.575Z,4.00
2022-09-06T08:58:45.822Z,4.27
2022-09-06T09:01:25.222Z,4.23
2022-09-06T09:03:54.380Z,4.63
2022-09-06T09:06:22.944Z,4.60
2022-09-06T09:09:12.983Z,4.00
2022-09-06T09:11:45.661Z,4.53
2022-09-06T09:14:16.872Z,4.40
2022-09-06T09:16:44.085Z,4.10
2022-09-06T09:19:11.132Z,4.30
2022-09-06T09:21:40.183Z,4.00
2022-09-06T09:24:12.818Z,3.90
2022-09-06T09:26:48.183Z,3.30
2022-09-06T09:29:15.976Z,3.53
2022-09-06T09:31:53.877Z,4.07
2022-09-06T09:34:39.659Z,3.60
2022-09-06T09:40:15.864Z,3.73
2022-09-06T09:42:42.627Z,3.83
2022-09-06T09:45:28.977Z,4.03
2022-09-06T09:47:56.116Z,3.43
2022-09-06T09:50:31.030Z,3.80
2022-09-06T09:53:09.130Z,3.63
2022-09-06T09:55:36.496Z,3.50
2022-09-06T09:58:04.097Z,3.90
2022-09-06T10:00:40.060Z,3.77
2022-09-06T10:03:20.130Z,3.80
2022-09-06T10:06:02.526Z,3.33
2022-09-06T10:08:32.814Z,3.60
2022-09-06T10:11:00.941Z,3.77
2022-09-06T10:13:29.723Z,3.50
2022-09-06T10:16:03.365Z,3.40
2022-09-06T10:18:41.979Z,3.10
2022-09-06T10:21:16.088Z,3.63
2022-09-06T10:26:53.718Z,2.50
2022-09-06T10:29:37.224Z,3.60
2022-09-06T10:32:31.830Z,3.83
2022-09-06T10:35:16.573Z,2.77
2022-09-06T10:37:58.432Z,3.60
2022-09-06T10:40:29.853Z,3.27
2022-09-06T10:42:59.545Z,3.00
2022-09-06T10:45:43.237Z,2.83
2022-09-06T10:48:14.965Z,3.10
2022-09-06T10:51:11.329Z,3.20
2022-09-06T10:53:55.368Z,3.80
2022-09-06T10:56:38.760Z,3.17
2022-09-06T10:59:38.441Z,2.73
2022-09-06T11:02:36.826Z,3.03
2022-09-06T11:10:55.472Z,2.97
2022-09-06T11:13:28.322Z,3.67
2022-09-06T11:16:16.524Z,3.27
2022-09-06T11:18:56.152Z,3.40
2022-09-06T11:21:29.077Z,3.37
2022-09-06T11:24:15.903Z,3.60
2022-09-06T11:26:51.309Z,3.20
2022-09-06T11:29:22.291Z,2.97
2022-09-06T11:34:53.995Z,3.23
2022-09-06T11:37:31.164Z,3.50
2022-09-06T11:42:52.118Z,3.10
2022-09-06T11:45:38.344Z,3.33
2022-09-06T11:48:23.665Z,3.53
2022-09-06T11:50:59.749Z,3.30
2022-09-06T11:53:33.964Z,4.00
2022-09-06T11:56:00.651Z,3.40
2022-09-06T11:58:43.140Z,3.67
2022-09-06T12:01:30.106Z,2.60
2022-09-06T12:04:08.765Z,3.70
2022-09-06T12:07:02.518Z,3.90
2022-09-06T12:09:34.986Z,3.07
2022-09-06T12:12:02.715Z,3.17
2022-09-06T12:14:46.086Z,3.30
2022-09-06T12:17:12.831Z,3.23
2022-09-06T12:20:06.914Z,2.87
2022-09-06T12:22:33.879Z,3.17
2022-09-06T12:25:05.835Z,2.97
2022-09-06T12:27:35.008Z,2.90
2022-09-06T12:30:13.170Z,3.37
2022-09-06T12:32:46.877Z,3.70
2022-09-06T12:38:06.893Z,3.40
2022-09-06T12:40:45.564Z,3.43
2022-09-06T12:43:15.149Z,3.20
2022-09-06T12:45:47.358Z,2.80
2022-09-06T12:48:35.289Z,2.80
2022-09-06T12:51:20.070Z,3.17
2022-09-06T12:53:59.503Z,2.60
2022-09-06T12:56:28.570Z,2.97
2022-09-06T12:59:25.052Z,3.30
2022-09-06T13:02:16.769Z,2.67
2022-09-06T13:04:54.408Z,2.73
2022-09-06T13:07:24.115Z,3.30
2022-09-06T13:09:55.568Z,2.10
2022-09-06T13:12:37.021Z,3.00
2022-09-06T13:15:25.211Z,2.87
2022-09-06T13:17:53.516Z,3.50
2022-09-06T13:20:30.481Z,3.40
2022-09-06T13:23:13.047Z,3.20
2022-09-06T13:25:51.632Z,2.73
2022-09-06T13:28:32.895Z,3.30
2022-09-06T13:31:20.923Z,2.97
2022-09-06T13:33:58.139Z,3.50
2022-09-06T13:36:28.131Z,2.80
2022-09-06T13:38:55.622Z,2.70
2022-09-06T13:41:25.176Z,2.80
2022-09-06T13:44:01.200Z,2.50
2022-09-06T13:46:28.050Z,2.93
2022-09-06T13:48:55.474Z,2.67
2022-09-06T13:51:23.219Z,2.67
2022-09-06T13:53:50.770Z,2.53
2022-09-06T13:56:17.753Z,3.27
2022-09-06T13:58:45.207Z,2.90
2022-09-06T14:01:14.173Z,3.20
2022-09-06T14:03:41.894Z,2.90
2022-09-06T14:06:10.255Z,3.03
2022-09-06T14:09:03.370Z,2.33
2022-09-06T14:11:26.121Z,1.80
2022-09-06T14:13:52.998Z,2.70
2022-09-06T14:16:19.864Z,2.60
2022-09-06T14:18:46.782Z,3.17
2022-09-06T14:21:13.636Z,2.87
2022-09-06T14:23:40.465Z,2.80
2022-09-06T14:26:07.281Z,3.03
2022-09-06T14:28:37.186Z,2.60
2022-09-06T14:31:18.343Z,3.10
2022-09-06T14:33:45.133Z,2.40
2022-09-06T14:36:18.001Z,2.50
2022-09-06T14:38:46.016Z,3.60
2022-09-06T14:41:14.537Z,2.20
2022-09-06T14:43:49.912Z,2.40
2022-09-06T14:46:18.677Z,2.37
2022-09-06T14:48:46.101Z,3.17
2022-09-06T14:51:24.859Z,3.63
2022-09-06T14:53:54.623Z,3.77
2022-09-06T14:56:22.991Z,2.73
2022-09-06T14:58:49.890Z,2.20
2022-09-06T15:01:20.438Z,2.70
2022-09-06T15:03:57.102Z,7.23
2022-09-06T15:06:25.743Z,4.10
2022-09-06T15:08:58.380Z,2.30
2022-09-06T15:11:37.160Z,2.50
2022-09-06T15:14:28.364Z,2.53
2022-09-06T15:16:58.065Z,2.43
2022-09-06T15:19:26.891Z,2.53
2022-09-06T15:21:55.224Z,2.10
2022-09-06T15:24:22.121Z,3.37
2022-09-06T15:26:49.237Z,2.60
2022-09-06T15:29:16.779Z,2.80
2022-09-06T15:31:44.856Z,2.70
2022-09-06T15:34:12.141Z,2.33
2022-09-06T15:36:38.916Z,2.90
2022-09-06T15:39:06.405Z,2.93
2022-09-06T15:41:36.144Z,2.50
2022-09-06T15:44:09.536Z,2.47
2022-09-06T15:46:39.932Z,2.77
2022-09-06T15:49:08.150Z,3.20
2022-09-06T15:51:37.542Z,2.23
2022-09-06T15:54:05.348Z,2.20
2022-09-06T15:56:32.171Z,2.83
2022-09-06T15:58:59.087Z,2.67
2022-09-06T16:01:26.969Z,2.73
2022-09-06T16:04:03.407Z,2.63
2022-09-06T16:06:32.811Z,3.30
2022-09-06T16:09:06.909Z,3.57
2022-09-06T16:11:36.565Z,2.60
2022-09-06T16:14:09.405Z,2.77
2022-09-06T16:16:36.710Z,2.60
2022-09-06T16:19:04.060Z,3.10
2022-09-06T16:21:33.367Z,2.90
2022-09-06T16:24:03.242Z,2.73
2022-09-06T16:26:38.707Z,2.37
2022-09-06T16:29:07.030Z,3.00
2022-09-06T16:31:39.324Z,3.07
2022-09-06T16:34:08.355Z,2.10
2022-09-06T16:36:35.163Z,3.03
2022-09-06T16:39:02.104Z,2.50
2022-09-06T16:41:36.293Z,2.70
2022-09-06T16:44:03.474Z,3.30
2022-09-06T16:46:31.184Z,2.63
2022-09-06T16:49:01.451Z,3.07
2022-09-06T16:51:29.374Z,2.63
2022-09-06T16:53:56.927Z,3.30
2022-09-06T16:56:26.311Z,3.30
2022-09-06T16:58:58.596Z,3.17
2022-09-06T17:01:26.803Z,3.10
2022-09-06T17:03:54.041Z,3.60
2022-09-06T17:06:21.624Z,3.33
2022-09-06T17:08:48.710Z,4.03
2022-09-06T17:11:22.324Z,3.60
2022-09-06T17:13:51.288Z,3.67
2022-09-06T17:16:40.355Z,4.13
2022-09-06T17:19:09.079Z,3.63
2022-09-06T17:21:37.439Z,3.93
2022-09-06T17:24:05.398Z,3.30
2022-09-06T17:26:34.618Z,3.30
2022-09-06T17:29:01.925Z,3.50
2022-09-06T17:31:29.754Z,3.80
2022-09-06T17:33:56.687Z,3.73
2022-09-06T17:36:26.593Z,4.53
2022-09-06T17:38:59.057Z,4.37
2022-09-06T17:41:30.325Z,4.63
2022-09-06T17:43:58.694Z,4.23
2022-09-06T17:46:28.897Z,5.00
2022-09-06T17:48:56.610Z,3.63
2022-09-06T17:51:24.484Z,3.03
2022-09-06T17:53:52.264Z,3.17
2022-09-06T17:56:20.366Z,3.57
2022-09-06T17:58:58.670Z,3.17
2022-09-06T18:01:29.361Z,3.87
2022-09-06T18:03:57.091Z,3.17
2022-09-06T18:06:25.658Z,3.40
2022-09-06T18:08:54.608Z,3.47
2022-09-06T18:11:27.273Z,4.50
2022-09-06T18:14:01.430Z,3.73
2022-09-06T18:16:30.396Z,4.17
2022-09-06T18:19:00.579Z,3.80
2022-09-06T18:21:30.972Z,3.70
2022-09-06T18:23:58.235Z,3.93
2022-09-06T18:26:25.391Z,3.70
2022-09-06T18:28:55.130Z,3.63
2022-09-06T18:31:25.479Z,4.07
2022-09-06T18:33:52.985Z,4.40
2022-09-06T18:36:20.306Z,4.07
2022-09-06T18:38:47.391Z,4.20
2022-09-06T18:41:34.952Z,3.90
2022-09-06T18:44:05.660Z,4.27
2022-09-06T18:46:34.641Z,4.13
2022-09-06T18:49:01.646Z,3.93
2022-09-06T18:51:28.863Z,3.53
2022-09-06T18:53:57.449Z,3.50
2022-09-06T18:56:25.197Z,3.67
2022-09-06T18:58:55.472Z,3.30
2022-09-06T19:01:22.645Z,4.07
2022-09-06T19:03:49.700Z,4.90
2022-09-06T19:06:18.990Z,4.87
2022-09-06T19:08:46.946Z,4.43
2022-09-06T19:11:19.490Z,4.03
2022-09-06T19:13:50.588Z,4.40
2022-09-06T19:16:18.199Z,4.73
2022-09-06T19:18:45.091Z,3.67
2022-09-06T19:21:17.488Z,4.47
2022-09-06T19:23:46.447Z,3.60
2022-09-06T19:26:19.363Z,3.83
2022-09-06T19:28:51.503Z,4.63
2022-09-06T19:31:18.945Z,4.20
2022-09-06T19:33:48.071Z,4.47
2022-09-06T19:36:16.580Z,4.13
2022-09-06T19:41:31.700Z,4.27
2022-09-06T19:44:00.126Z,4.40
2022-09-06T19:46:27.572Z,4.83
2022-09-06T19:48:56.167Z,5.07
2022-09-06T19:51:24.148Z,5.50
2022-09-06T19:53:53.415Z,4.53
2022-09-06T19:56:33.311Z,4.00
2022-09-06T19:59:05.811Z,5.30
2022-09-06T20:01:34.947Z,5.13
2022-09-06T20:04:03.620Z,4.53
2022-09-06T20:06:31.357Z,4.60
2022-09-06T20:08:59.975Z,4.67
2022-09-06T20:11:29.258Z,4.93
2022-09-06T20:13:56.170Z,4.27
2022-09-06T20:16:24.886Z,4.43
2022-09-06T20:18:53.850Z,4.60
2022-09-06T20:21:21.055Z,4.50
2022-09-06T20:23:52.253Z,4.90
2022-09-06T20:26:19.771Z,5.00
2022-09-06T20:28:47.498Z,4.80
2022-09-06T20:31:16.692Z,5.50
2022-09-06T20:33:48.728Z,3.90
2022-09-06T20:36:16.854Z,4.90
2022-09-06T20:38:45.283Z,4.80
2022-09-06T20:41:17.686Z,5.03
2022-09-06T20:43:45.489Z,5.90
2022-09-06T20:46:16.330Z,4.70
2022-09-06T20:48:45.380Z,4.83
2022-09-06T20:51:19.103Z,4.57
2022-09-06T20:53:57.756Z,4.30
2022-09-06T20:56:27.416Z,4.60
2022-09-06T20:58:57.323Z,4.90
2022-09-06T21:01:26.631Z,4.60
2022-09-06T21:03:56.164Z,4.20
2022-09-06T21:06:25.231Z,4.63
2022-09-06T21:08:52.445Z,5.00
2022-09-06T21:11:19.763Z,4.63
2022-09-06T21:13:53.498Z,4.97
2022-09-06T21:16:24.659Z,4.77
2022-09-06T21:18:57.105Z,4.57
2022-09-06T21:21:25.468Z,4.87
2022-09-06T21:23:52.909Z,4.87
2022-09-06T21:26:20.723Z,5.23
2022-09-06T21:28:48.267Z,4.30
2022-09-06T21:31:25.851Z,4.90
2022-09-06T21:33:55.137Z,4.33
2022-09-06T21:36:30.419Z,4.07
2022-09-06T21:38:59.965Z,5.00
2022-09-06T21:41:28.170Z,4.40
2022-09-06T21:43:59.893Z,4.53
2022-09-06T21:46:33.074Z,4.80
2022-09-06T21:49:04.212Z,4.70
2022-09-06T21:51:32.471Z,5.13
2022-09-06T21:54:03.376Z,5.20
2022-09-06T21:56:31.503Z,4.67
2022-09-06T21:58:58.974Z,5.43
2022-09-06T22:01:28.508Z,4.90
2022-09-06T22:03:55.704Z,4.53
2022-09-06T22:06:25.471Z,5.83
2022-09-06T22:08:53.957Z,4.43
2022-09-06T22:11:24.460Z,3.97
2022-09-06T22:13:51.786Z,5.73
2022-09-06T22:16:21.623Z,6.10
2022-09-06T22:18:49.255Z,4.73
2022-09-06T22:21:20.101Z,4.70
2022-09-06T22:24:11.194Z,5.23
2022-09-06T22:26:39.975Z,4.87
2022-09-06T22:29:09.016Z,5.77
2022-09-06T22:31:36.628Z,4.17
2022-09-06T22:34:04.194Z,5.70
2022-09-06T22:36:31.202Z,4.53
2022-09-06T22:38:58.958Z,5.87
2022-09-06T22:41:28.555Z,5.37
2022-09-06T22:43:55.580Z,4.47
2022-09-06T22:46:23.024Z,4.83
2022-09-06T22:48:50.378Z,4.80
2022-09-06T22:51:17.215Z,4.87
2022-09-06T22:53:44.036Z,5.90
2022-09-06T22:56:10.963Z,5.30
2022-09-06T22:58:37.789Z,4.70
2022-09-06T23:01:10.455Z,5.40
2022-09-06T23:03:37.808Z,5.23
2022-09-06T23:06:05.569Z,4.50
2022-09-06T23:08:33.757Z,4.20
2022-09-06T23:11:14.381Z,4.60
2022-09-06T23:13:44.879Z,4.87
2022-09-06T23:16:16.987Z,5.00
2022-09-06T23:18:44.714Z,4.23
2022-09-06T23:21:15.644Z,4.33
2022-09-06T23:23:43.248Z,4.93
2022-09-06T23:26:12.794Z,4.70
2022-09-06T23:28:39.769Z,4.30
2022-09-06T23:31:08.926Z,4.80
2022-09-06T23:33:37.249Z,4.57
2022-09-06T23:36:09.187Z,6.00
2022-09-06T23:38:37.723Z,5.00
2022-09-06T23:41:05.314Z,4.50
2022-09-06T23:43:32.650Z,5.23
2022-09-06T23:45:59.497Z,4.90
2022-09-06T23:48:26.595Z,5.03
2022-09-06T23:50:53.744Z,3.83
2022-09-06T23:53:20.584Z,4.17
2022-09-06T23:55:47.402Z,4.93
2022-09-06T23:58:14.570Z,4.70
